METAR Data
IDs: Format: Raw Decoded Include TAF

Data at: 2332 UTC 29 May 2020

METAR for:KCWI (Clinton Muni, IA, US)
Text:KCWI 292256Z AUTO 33014KT 10SM OVC045 18/09 A3011 RMK AO2 SLP200 T01830094 PNO $
Temperature: 18.3°C ( 65°F)
Dewpoint: 9.4°C ( 49°F) [RH = 56%]
Pressure (altimeter):30.11 inches Hg (1019.7 mb) [Sea level pressure: 1020.0 mb]
Winds:from the NNW (330 degrees) at 16 MPH (14 knots; 7.2 m/s)
Visibility:10 or more sm (16+ km)
Ceiling:4500 feet AGL
Clouds: overcast cloud deck at 4500 feet AGL
QC Flag:automated observation with no human augmentation; SOME DATA ABOVE MAY BE INACCURATE!!!"$" is an indication the sensor requires maintenance.